Time;durP1;ratioP1;P1;durP2;ratioP2;P2;SDS_P1;SDS_P2;PMS_P1;PMS_P2;Temp;Humidity;BMP_temperature;BMP_pressure;BME280_temperature;BME280_humidity;BME280_pressure;Samples;Min_cycle;Max_cycle;Signal;HPM_P1;HPM_P2
2023/04/21 00:02:16;;;;;;;18.63;7.97;;;;;;;;;;4992520;28;20418;-81
2023/04/21 00:04:50;;;;;;;16.52;8.23;;;;;;;;;;5009621;28;20994;-81
2023/04/21 00:07:19;;;;;;;17.13;8.32;;;;;;;;;;4992933;28;20430;-81
2023/04/21 00:09:46;;;;;;;17.58;8.30;;;;;;;;;;5007964;28;20426;-82
2023/04/21 00:12:19;;;;;;;16.40;8.43;;;;;;;;;;4992247;28;20426;-81
2023/04/21 00:14:48;;;;;;;18.65;8.20;;;;;;;;;;4992814;28;20415;-82
2023/04/21 00:17:16;;;;;;;15.35;7.85;;;;;;;;;;4986603;28;20437;-81
2023/04/21 00:19:49;;;;;;;16.63;8.05;;;;;;;;;;4991990;28;20438;-82
2023/04/21 00:22:22;;;;;;;17.63;8.00;;;;;;;;;;5007823;28;20441;-81
2023/04/21 00:24:49;;;;;;;18.35;8.15;;;;;;;;;;4992422;28;20421;-81
2023/04/21 00:27:17;;;;;;;15.00;7.67;;;;;;;;;;5008503;28;20434;-81
2023/04/21 00:29:45;;;;;;;16.33;8.20;;;;;;;;;;4991141;28;20442;-80
2023/04/21 00:32:15;;;;;;;16.55;8.30;;;;;;;;;;4990794;28;20419;-81
2023/04/21 00:34:43;;;;;;;15.20;8.07;;;;;;;;;;4996288;28;20410;-81
2023/04/21 00:37:12;;;;;;;16.67;8.07;;;;;;;;;;4998022;28;20445;-81
2023/04/21 00:39:39;;;;;;;16.70;8.77;;;;;;;;;;4991740;28;20430;-82
2023/04/21 00:42:07;;;;;;;16.90;8.32;;;;;;;;;;4992298;28;20748;-80
2023/04/21 00:44:35;;;;;;;18.65;8.70;;;;;;;;;;4997559;28;20422;-81
2023/04/21 00:47:04;;;;;;;20.02;8.88;;;;;;;;;;4991764;28;20430;-81
2023/04/21 00:49:33;;;;;;;17.55;8.20;;;;;;;;;;4992089;28;20783;-80
2023/04/21 00:52:01;;;;;;;18.73;8.77;;;;;;;;;;5000560;28;20458;-81
2023/04/21 00:54:29;;;;;;;19.43;8.53;;;;;;;;;;4985611;28;20430;-81
2023/04/21 00:56:57;;;;;;;18.55;8.32;;;;;;;;;;5008694;28;20426;-81
2023/04/21 00:59:25;;;;;;;17.35;8.10;;;;;;;;;;5008138;28;20438;-81
2023/04/21 01:01:58;;;;;;;21.00;8.38;;;;;;;;;;4993522;28;20424;-81
2023/04/21 01:04:25;;;;;;;15.80;7.75;;;;;;;;;;4994487;28;20418;-81
2023/04/21 01:06:55;;;;;;;17.75;8.20;;;;;;;;;;4989481;28;20785;-81
2023/04/21 01:09:23;;;;;;;17.10;8.18;;;;;;;;;;5007308;28;20422;-81
2023/04/21 01:12:01;;;;;;;18.67;8.32;;;;;;;;;;4989043;28;20442;-81
2023/04/21 01:14:28;;;;;;;18.08;8.18;;;;;;;;;;4992683;28;20413;-81
2023/04/21 01:16:56;;;;;;;17.83;8.68;;;;;;;;;;4989852;28;20437;-81
2023/04/21 01:19:31;;;;;;;16.92;8.32;;;;;;;;;;4999384;28;20435;-81
2023/04/21 01:22:01;;;;;;;15.65;8.18;;;;;;;;;;4991120;28;20414;-81
2023/04/21 01:24:37;;;;;;;15.10;7.70;;;;;;;;;;4989740;28;20418;-81
2023/04/21 01:27:08;;;;;;;18.47;8.47;;;;;;;;;;5008952;28;20427;-81
2023/04/21 01:29:36;;;;;;;15.90;8.10;;;;;;;;;;4996628;28;20438;-81
2023/04/21 01:32:05;;;;;;;18.53;8.57;;;;;;;;;;4989749;28;20511;-81
2023/04/21 01:34:33;;;;;;;18.07;8.60;;;;;;;;;;4989298;28;20410;-81
2023/04/21 01:37:08;;;;;;;17.98;8.50;;;;;;;;;;4994099;28;20979;-81
2023/04/21 01:39:37;;;;;;;19.17;8.10;;;;;;;;;;4992072;28;20429;-81
2023/04/21 01:42:10;;;;;;;17.00;8.13;;;;;;;;;;5002376;28;20445;-82
2023/04/21 01:44:38;;;;;;;17.10;8.50;;;;;;;;;;4990302;28;20422;-80
2023/04/21 01:47:06;;;;;;;15.98;7.80;;;;;;;;;;4992945;28;20426;-81
2023/04/21 01:49:39;;;;;;;16.92;8.88;;;;;;;;;;4990364;28;20419;-82
2023/04/21 01:52:08;;;;;;;15.25;8.00;;;;;;;;;;4990000;28;20426;-81
2023/04/21 01:54:36;;;;;;;19.90;8.60;;;;;;;;;;4990855;28;20438;-80
2023/04/21 01:57:04;;;;;;;15.52;7.97;;;;;;;;;;4991472;28;20417;-80
2023/04/21 01:59:37;;;;;;;18.48;8.32;;;;;;;;;;5006876;28;20465;-82
2023/04/21 02:02:11;;;;;;;17.98;8.30;;;;;;;;;;5000895;28;20420;-81
2023/04/21 02:04:43;;;;;;;19.02;8.43;;;;;;;;;;4988052;28;20459;-80
2023/04/21 02:07:17;;;;;;;17.10;8.30;;;;;;;;;;4991271;28;20428;-80
2023/04/21 02:09:51;;;;;;;23.15;8.57;;;;;;;;;;4983725;28;20410;-81
2023/04/21 02:12:18;;;;;;;18.95;8.77;;;;;;;;;;4989393;28;20425;-80
2023/04/21 02:14:48;;;;;;;20.15;8.75;;;;;;;;;;4989387;28;20426;-81
2023/04/21 02:17:16;;;;;;;19.60;7.82;;;;;;;;;;5007790;28;20425;-82
2023/04/21 02:19:44;;;;;;;15.00;8.23;;;;;;;;;;4997687;28;20450;-81
2023/04/21 02:22:12;;;;;;;20.58;8.13;;;;;;;;;;4991564;28;20431;-81
2023/04/21 02:24:46;;;;;;;17.10;7.88;;;;;;;;;;4992321;28;20779;-80
2023/04/21 02:27:14;;;;;;;18.33;8.00;;;;;;;;;;4979984;28;20435;-80
2023/04/21 02:29:42;;;;;;;15.65;8.05;;;;;;;;;;4991081;28;20426;-81
2023/04/21 02:32:09;;;;;;;17.38;8.25;;;;;;;;;;5000405;28;20774;-80
2023/04/21 02:34:38;;;;;;;18.73;7.95;;;;;;;;;;5012456;28;20461;-81
2023/04/21 02:37:05;;;;;;;17.67;8.02;;;;;;;;;;4993915;28;20423;-80
2023/04/21 02:39:38;;;;;;;17.50;8.18;;;;;;;;;;5008741;28;20431;-80
2023/04/21 02:42:12;;;;;;;20.70;8.30;;;;;;;;;;5011291;28;20430;-80
2023/04/21 02:44:41;;;;;;;18.45;8.50;;;;;;;;;;4992932;28;20436;-81
2023/04/21 02:47:15;;;;;;;16.42;8.38;;;;;;;;;;5005276;28;20427;-81
2023/04/21 02:49:43;;;;;;;16.50;8.35;;;;;;;;;;4984830;28;20441;-80
2023/04/21 02:52:15;;;;;;;18.42;8.35;;;;;;;;;;4997248;28;20434;-81
2023/04/21 02:54:43;;;;;;;17.30;8.30;;;;;;;;;;5010265;28;20423;-81
2023/04/21 02:57:12;;;;;;;17.67;8.57;;;;;;;;;;5009048;28;20538;-80
2023/04/21 02:59:40;;;;;;;17.98;8.35;;;;;;;;;;4996333;28;21257;-81
2023/04/21 03:02:08;;;;;;;17.70;8.60;;;;;;;;;;4996083;28;20430;-81
2023/04/21 03:04:38;;;;;;;17.90;8.38;;;;;;;;;;4993702;28;20429;-80
2023/04/21 03:07:11;;;;;;;17.00;8.02;;;;;;;;;;4993799;28;20426;-81
2023/04/21 03:09:44;;;;;;;16.45;8.13;;;;;;;;;;5001551;28;20783;-81
2023/04/21 03:12:13;;;;;;;14.60;8.27;;;;;;;;;;5007005;28;20418;-80
2023/04/21 03:14:46;;;;;;;15.43;7.70;;;;;;;;;;4993454;28;20419;-80
2023/04/21 03:17:14;;;;;;;17.35;8.10;;;;;;;;;;4994162;28;20419;-80
2023/04/21 03:19:42;;;;;;;15.98;8.30;;;;;;;;;;4993804;28;20430;-81
2023/04/21 03:22:14;;;;;;;23.48;8.85;;;;;;;;;;5009028;28;20447;-81
2023/04/21 03:24:47;;;;;;;20.43;8.30;;;;;;;;;;4993151;28;20895;-81
2023/04/21 03:27:16;;;;;;;18.03;8.13;;;;;;;;;;4993801;28;21194;-81
2023/04/21 03:29:44;;;;;;;18.60;8.18;;;;;;;;;;4993254;28;20418;-81
2023/04/21 03:32:17;;;;;;;16.70;8.07;;;;;;;;;;4993693;28;20423;-81
2023/04/21 03:34:45;;;;;;;15.80;8.13;;;;;;;;;;4993100;28;20426;-80
2023/04/21 03:37:19;;;;;;;18.60;7.82;;;;;;;;;;5008968;28;20417;-80
2023/04/21 03:39:48;;;;;;;20.38;8.90;;;;;;;;;;4995030;28;20421;-80
2023/04/21 03:42:19;;;;;;;16.95;8.30;;;;;;;;;;4975191;28;20915;-81
2023/04/21 03:44:46;;;;;;;19.65;8.82;;;;;;;;;;5007890;28;20441;-80
2023/04/21 03:47:16;;;;;;;16.38;9.05;;;;;;;;;;4991375;28;20784;-80
2023/04/21 03:49:50;;;;;;;18.08;7.82;;;;;;;;;;4993498;28;20757;-81
2023/04/21 03:52:18;;;;;;;17.75;8.57;;;;;;;;;;4992086;28;20430;-81
2023/04/21 03:54:50;;;;;;;17.95;8.35;;;;;;;;;;5008690;28;20791;-81
2023/04/21 03:57:19;;;;;;;19.92;8.60;;;;;;;;;;4990947;28;20425;-82
2023/04/21 03:59:47;;;;;;;16.58;8.32;;;;;;;;;;4991693;28;20906;-80
2023/04/21 04:02:15;;;;;;;15.50;8.15;;;;;;;;;;4992541;28;20779;-80
2023/04/21 04:04:43;;;;;;;15.33;8.20;;;;;;;;;;4994662;28;20431;-81
2023/04/21 04:07:11;;;;;;;13.73;7.80;;;;;;;;;;4992328;28;20486;-81
2023/04/21 04:09:38;;;;;;;17.53;8.40;;;;;;;;;;5010388;28;20525;-81
2023/04/21 04:12:06;;;;;;;16.92;8.05;;;;;;;;;;4991560;28;20422;-81
2023/04/21 04:14:40;;;;;;;15.90;7.60;;;;;;;;;;4998656;28;20452;-82
2023/04/21 04:17:08;;;;;;;17.55;7.95;;;;;;;;;;4994116;28;20415;-81
2023/04/21 04:19:36;;;;;;;16.25;8.43;;;;;;;;;;5008386;28;20434;-82
2023/04/21 04:22:03;;;;;;;17.52;8.93;;;;;;;;;;4991330;28;20445;-81
2023/04/21 04:24:32;;;;;;;15.30;7.97;;;;;;;;;;4992783;28;20414;-81
2023/04/21 04:27:01;;;;;;;19.23;8.73;;;;;;;;;;5009098;28;20422;-81
2023/04/21 04:29:29;;;;;;;18.50;8.67;;;;;;;;;;5001296;28;20512;-81
2023/04/21 04:32:00;;;;;;;16.30;8.87;;;;;;;;;;5006591;28;20887;-81
2023/04/21 04:34:29;;;;;;;17.57;8.47;;;;;;;;;;4991789;28;20437;-81
2023/04/21 04:37:02;;;;;;;16.20;8.30;;;;;;;;;;5006496;28;20437;-81
2023/04/21 04:39:30;;;;;;;16.92;8.50;;;;;;;;;;4992313;28;20414;-81
2023/04/21 04:41:58;;;;;;;14.90;8.13;;;;;;;;;;4990799;28;20432;-81
2023/04/21 04:44:26;;;;;;;15.40;8.02;;;;;;;;;;4991998;28;20417;-81
2023/04/21 04:46:55;;;;;;;15.60;8.20;;;;;;;;;;4991598;28;20418;-81
2023/04/21 04:49:24;;;;;;;14.02;7.88;;;;;;;;;;4992935;28;20417;-81
2023/04/21 04:51:58;;;;;;;16.30;8.30;;;;;;;;;;5007249;28;20434;-80
2023/04/21 04:54:31;;;;;;;16.17;8.65;;;;;;;;;;5005235;28;20434;-82
2023/04/21 04:57:04;;;;;;;18.88;8.65;;;;;;;;;;4996992;28;20426;-81
2023/04/21 04:59:37;;;;;;;15.93;8.52;;;;;;;;;;4993800;28;20431;-81
2023/04/21 05:02:04;;;;;;;16.48;8.57;;;;;;;;;;4987604;28;20441;-81
2023/04/21 05:04:34;;;;;;;16.15;8.50;;;;;;;;;;5005352;28;20709;-81
2023/04/21 05:07:02;;;;;;;19.35;8.40;;;;;;;;;;5004299;28;20442;-81
2023/04/21 05:09:30;;;;;;;15.82;7.95;;;;;;;;;;5005480;28;20438;-81
2023/04/21 05:12:03;;;;;;;15.60;7.57;;;;;;;;;;4999574;28;20437;-81
2023/04/21 05:14:31;;;;;;;12.43;7.10;;;;;;;;;;4989662;28;20433;-82
2023/04/21 05:16:58;;;;;;;14.57;7.07;;;;;;;;;;4981421;28;20426;-81
2023/04/21 05:19:26;;;;;;;15.10;7.20;;;;;;;;;;4989528;28;20945;-81
2023/04/21 05:22:00;;;;;;;13.82;7.03;;;;;;;;;;4987436;28;20771;-82
2023/04/21 05:24:34;;;;;;;14.25;7.05;;;;;;;;;;4990202;28;20914;-81
2023/04/21 05:27:01;;;;;;;16.42;7.53;;;;;;;;;;5005117;28;20432;-81
2023/04/21 05:29:29;;;;;;;14.40;7.28;;;;;;;;;;4990742;28;20421;-81
2023/04/21 05:31:57;;;;;;;15.45;7.78;;;;;;;;;;5004291;28;20422;-81
2023/04/21 05:34:25;;;;;;;14.82;7.85;;;;;;;;;;4990149;28;20464;-81
2023/04/21 05:36:53;;;;;;;15.82;8.07;;;;;;;;;;4990044;28;20418;-81
2023/04/21 05:39:28;;;;;;;16.80;8.10;;;;;;;;;;4988814;28;20438;-82
2023/04/21 05:42:01;;;;;;;14.57;7.57;;;;;;;;;;4990196;28;20523;-82
2023/04/21 05:44:29;;;;;;;15.13;7.30;;;;;;;;;;4988861;28;20819;-81
2023/04/21 05:46:57;;;;;;;16.00;7.78;;;;;;;;;;4988756;28;20430;-81
2023/04/21 05:49:25;;;;;;;14.93;8.18;;;;;;;;;;4991170;28;20414;-81
2023/04/21 05:51:53;;;;;;;14.68;8.05;;;;;;;;;;4987426;28;20443;-81
2023/04/21 05:54:20;;;;;;;15.02;7.65;;;;;;;;;;4987781;28;20416;-80
2023/04/21 05:56:50;;;;;;;14.48;7.82;;;;;;;;;;4989938;28;20425;-81
2023/04/21 05:59:17;;;;;;;16.43;7.67;;;;;;;;;;4989941;28;20815;-81
2023/04/21 06:01:45;;;;;;;12.17;7.33;;;;;;;;;;4993252;28;20493;-82
2023/04/21 06:04:13;;;;;;;16.90;7.68;;;;;;;;;;4993510;28;20438;-81
2023/04/21 06:06:41;;;;;;;13.85;7.78;;;;;;;;;;5012953;28;20437;-82
2023/04/21 06:09:15;;;;;;;17.67;7.95;;;;;;;;;;4988858;28;20426;-82
2023/04/21 06:11:42;;;;;;;17.67;7.72;;;;;;;;;;5002678;28;20441;-82
2023/04/21 06:14:16;;;;;;;17.15;7.32;;;;;;;;;;4990690;28;20423;-81
2023/04/21 06:16:44;;;;;;;17.35;7.80;;;;;;;;;;5002560;28;20426;-81
2023/04/21 06:19:17;;;;;;;16.33;7.78;;;;;;;;;;4994322;28;20903;-83
2023/04/21 06:21:50;;;;;;;16.50;7.80;;;;;;;;;;4994059;28;20456;-82
2023/04/21 06:24:23;;;;;;;17.02;7.28;;;;;;;;;;4994149;28;20426;-82
2023/04/21 06:26:52;;;;;;;14.63;7.13;;;;;;;;;;5006887;28;20502;-82
2023/04/21 06:29:21;;;;;;;13.93;7.45;;;;;;;;;;4991560;28;20794;-82
2023/04/21 06:31:49;;;;;;;16.10;7.50;;;;;;;;;;4984093;28;20514;-82
2023/04/21 06:34:21;;;;;;;16.27;7.30;;;;;;;;;;4993711;28;20433;-82
2023/04/21 06:36:49;;;;;;;14.18;7.55;;;;;;;;;;4994140;28;20826;-83
2023/04/21 06:39:17;;;;;;;14.55;7.43;;;;;;;;;;5001359;28;20430;-81
2023/04/21 06:41:45;;;;;;;14.43;7.40;;;;;;;;;;4993864;28;20430;-81
2023/04/21 06:44:18;;;;;;;15.57;7.60;;;;;;;;;;4987554;28;20426;-82
2023/04/21 06:46:47;;;;;;;13.47;7.53;;;;;;;;;;4992367;28;20787;-82
2023/04/21 06:49:15;;;;;;;14.27;7.05;;;;;;;;;;4993641;28;20751;-82
2023/04/21 06:51:42;;;;;;;14.43;7.35;;;;;;;;;;4997117;28;20765;-84
2023/04/21 06:54:10;;;;;;;13.93;7.40;;;;;;;;;;4999180;28;20425;-82
2023/04/21 06:56:38;;;;;;;15.15;7.90;;;;;;;;;;4994109;28;20899;-80
2023/04/21 06:59:06;;;;;;;12.88;7.22;;;;;;;;;;4995657;28;20455;-83
2023/04/21 07:01:39;;;;;;;16.98;7.43;;;;;;;;;;5006802;28;20864;-81
2023/04/21 07:04:13;;;;;;;13.05;6.72;;;;;;;;;;4994568;28;20436;-84
2023/04/21 07:06:42;;;;;;;15.93;6.85;;;;;;;;;;4993115;28;20426;-80
2023/04/21 07:09:10;;;;;;;13.25;6.38;;;;;;;;;;4991366;28;20445;-84
2023/04/21 07:11:38;;;;;;;15.27;7.28;;;;;;;;;;4984702;28;20434;-81
2023/04/21 07:14:06;;;;;;;13.68;7.07;;;;;;;;;;4984545;28;20457;-81
2023/04/21 07:16:38;;;;;;;12.88;6.80;;;;;;;;;;5007634;28;20438;-81
2023/04/21 07:19:06;;;;;;;12.77;6.65;;;;;;;;;;4991690;28;20431;-81
2023/04/21 07:21:40;;;;;;;12.93;7.25;;;;;;;;;;4988629;28;20836;-82
2023/04/21 07:24:08;;;;;;;13.85;7.03;;;;;;;;;;4992936;28;20437;-81
2023/04/21 07:26:36;;;;;;;12.18;6.80;;;;;;;;;;4990873;28;20427;-83
2023/04/21 07:29:04;;;;;;;11.68;7.00;;;;;;;;;;5005031;28;20434;-81
2023/04/21 07:31:36;;;;;;;14.88;7.55;;;;;;;;;;5004953;28;20961;-80
2023/04/21 07:34:04;;;;;;;12.70;6.70;;;;;;;;;;4990638;28;20437;-80
2023/04/21 07:36:37;;;;;;;13.70;7.25;;;;;;;;;;4988158;28;20461;-82
2023/04/21 07:39:11;;;;;;;12.85;7.18;;;;;;;;;;4994831;28;20870;-83
2023/04/21 07:41:44;;;;;;;11.57;6.60;;;;;;;;;;5000066;28;21002;-82
2023/04/21 07:44:17;;;;;;;12.38;6.97;;;;;;;;;;4992411;28;21288;-82
2023/04/21 07:46:50;;;;;;;13.65;7.13;;;;;;;;;;4968911;28;20468;-81
2023/04/21 07:49:17;;;;;;;11.82;6.80;;;;;;;;;;4993668;28;20472;-83
2023/04/21 07:51:45;;;;;;;14.30;7.00;;;;;;;;;;4977843;28;20902;-84
2023/04/21 07:54:19;;;;;;;12.75;6.95;;;;;;;;;;4981706;28;20424;-82
2023/04/21 07:56:47;;;;;;;13.13;6.78;;;;;;;;;;4981111;28;20414;-83
2023/04/21 07:59:20;;;;;;;12.15;6.90;;;;;;;;;;4978233;28;20445;-82
2023/04/21 08:01:50;;;;;;;12.48;6.90;;;;;;;;;;4990960;28;22148;-84
2023/04/21 08:04:18;;;;;;;13.00;6.93;;;;;;;;;;4968046;28;20445;-84
2023/04/21 08:06:51;;;;;;;13.30;6.97;;;;;;;;;;4988820;28;20465;-81
2023/04/21 08:09:20;;;;;;;12.25;7.25;;;;;;;;;;4980903;28;20434;-80
2023/04/21 08:11:48;;;;;;;13.57;7.15;;;;;;;;;;4978933;28;20438;-81
2023/04/21 08:14:21;;;;;;;13.98;7.20;;;;;;;;;;4992459;28;20455;-83
2023/04/21 08:16:49;;;;;;;14.13;6.80;;;;;;;;;;4994672;28;20430;-83
2023/04/21 08:19:17;;;;;;;12.30;6.70;;;;;;;;;;4980729;28;21155;-83
2023/04/21 08:21:45;;;;;;;14.07;7.17;;;;;;;;;;4980424;28;20530;-81
2023/04/21 08:24:13;;;;;;;13.50;6.80;;;;;;;;;;4991699;28;20429;-82
2023/04/21 08:26:42;;;;;;;11.77;6.57;;;;;;;;;;4982474;28;20430;-82
2023/04/21 08:29:15;;;;;;;12.48;6.65;;;;;;;;;;4979842;28;20915;-83
2023/04/21 08:31:48;;;;;;;12.30;7.13;;;;;;;;;;4977118;28;20793;-84
2023/04/21 08:34:20;;;;;;;14.00;6.50;;;;;;;;;;5000150;28;20432;-82
2023/04/21 08:36:53;;;;;;;11.95;7.00;;;;;;;;;;4993365;28;20438;-83
2023/04/21 08:39:21;;;;;;;12.47;6.67;;;;;;;;;;4982932;28;20434;-83
2023/04/21 08:41:51;;;;;;;14.00;6.85;;;;;;;;;;4995853;28;20438;-81
2023/04/21 08:44:20;;;;;;;13.00;6.75;;;;;;;;;;4977903;28;20434;-82
2023/04/21 08:46:54;;;;;;;12.07;6.50;;;;;;;;;;4993253;28;20446;-82
2023/04/21 08:49:29;;;;;;;11.70;6.85;;;;;;;;;;4972219;28;20432;-80
2023/04/21 08:51:56;;;;;;;12.93;6.90;;;;;;;;;;4984717;28;20453;-84
2023/04/21 08:54:24;;;;;;;12.50;6.55;;;;;;;;;;4990904;28;20438;-83
2023/04/21 08:56:54;;;;;;;12.80;7.15;;;;;;;;;;4994437;28;20442;-82
2023/04/21 08:59:21;;;;;;;13.67;6.60;;;;;;;;;;4981378;28;20771;-82
2023/04/21 09:02:09;;;;;;;12.43;6.50;;;;;;;;;;4982113;28;20438;-81
2023/04/21 09:04:42;;;;;;;12.18;6.95;;;;;;;;;;4980460;28;20426;-81
2023/04/21 09:07:10;;;;;;;13.35;6.78;;;;;;;;;;4979459;28;20433;-83
2023/04/21 09:09:51;;;;;;;12.45;6.50;;;;;;;;;;4998798;28;20425;-84
2023/04/21 09:12:21;;;;;;;14.35;6.65;;;;;;;;;;4990348;28;20438;-82
2023/04/21 09:14:48;;;;;;;12.32;6.72;;;;;;;;;;4977287;28;21113;-83
2023/04/21 09:17:17;;;;;;;12.10;6.72;;;;;;;;;;4975459;28;20426;-81
2023/04/21 09:19:50;;;;;;;14.18;6.72;;;;;;;;;;4989900;28;20466;-82
2023/04/21 09:22:18;;;;;;;13.45;6.10;;;;;;;;;;4989515;28;20440;-84
2023/04/21 09:24:57;;;;;;;11.63;6.88;;;;;;;;;;4993743;28;20430;-85
2023/04/21 09:27:31;;;;;;;10.93;6.45;;;;;;;;;;4980349;28;20439;-82
2023/04/21 09:30:02;;;;;;;11.23;6.60;;;;;;;;;;4973846;28;20428;-84
2023/04/21 09:32:35;;;;;;;12.85;7.03;;;;;;;;;;4999204;28;20453;-79
2023/04/21 09:35:03;;;;;;;12.80;6.50;;;;;;;;;;4994019;28;20438;-82
2023/04/21 09:37:32;;;;;;;11.47;6.57;;;;;;;;;;4984486;28;20457;-82
2023/04/21 09:40:00;;;;;;;13.18;7.40;;;;;;;;;;4974306;28;20457;-83
2023/04/21 09:42:34;;;;;;;13.27;6.47;;;;;;;;;;4985015;28;20422;-84
2023/04/21 09:45:03;;;;;;;12.50;7.13;;;;;;;;;;4993266;28;20455;-86
2023/04/21 09:47:33;;;;;;;12.20;6.80;;;;;;;;;;4978572;28;20526;-85
2023/04/21 09:50:07;;;;;;;13.70;6.80;;;;;;;;;;4986644;28;21045;-85
2023/04/21 09:52:35;;;;;;;13.17;6.70;;;;;;;;;;4987519;28;20436;-86
2023/04/21 09:55:11;;;;;;;16.40;7.07;;;;;;;;;;4982687;28;21663;-85
2023/04/21 09:57:41;;;;;;;12.75;6.72;;;;;;;;;;4995128;28;20444;-85
2023/04/21 10:00:11;;;;;;;14.33;7.00;;;;;;;;;;4976898;28;20752;-85
2023/04/21 10:02:44;;;;;;;12.68;6.47;;;;;;;;;;4989818;28;20461;-85
2023/04/21 10:05:12;;;;;;;12.77;6.78;;;;;;;;;;4973568;28;20443;-85
2023/04/21 10:07:40;;;;;;;14.95;6.75;;;;;;;;;;4979979;28;20437;-85
2023/04/21 10:10:11;;;;;;;10.88;6.57;;;;;;;;;;4987217;28;20454;-84
2023/04/21 10:12:41;;;;;;;14.38;6.95;;;;;;;;;;4986943;28;20451;-84
2023/04/21 10:15:28;;;;;;;11.63;6.80;;;;;;;;;;4991185;28;20437;-85
2023/04/21 10:18:10;;;;;;;12.95;6.57;;;;;;;;;;4989369;28;20442;-84
2023/04/21 10:20:50;;;;;;;14.23;6.70;;;;;;;;;;4976715;28;20430;-85
2023/04/21 10:23:25;;;;;;;11.60;6.50;;;;;;;;;;4975952;28;20435;-83
2023/04/21 10:26:02;;;;;;;11.95;6.78;;;;;;;;;;4988619;28;20434;-84
2023/04/21 10:28:41;;;;;;;12.52;6.53;;;;;;;;;;4987732;28;20458;-84
2023/04/21 10:31:18;;;;;;;10.32;6.43;;;;;;;;;;4978989;28;20444;-83
2023/04/21 10:34:05;;;;;;;12.40;6.95;;;;;;;;;;4987963;28;20907;-84
2023/04/21 10:36:33;;;;;;;11.57;6.33;;;;;;;;;;4969817;28;20441;-85
2023/04/21 10:39:06;;;;;;;12.55;6.63;;;;;;;;;;4974018;28;20441;-83
2023/04/21 10:41:39;;;;;;;14.50;6.50;;;;;;;;;;4992509;28;20797;-84
2023/04/21 10:44:14;;;;;;;11.07;6.65;;;;;;;;;;4984875;28;20449;-84
2023/04/21 10:46:45;;;;;;;12.40;6.50;;;;;;;;;;4995682;28;20432;-84
2023/04/21 10:49:21;;;;;;;11.77;6.40;;;;;;;;;;4985344;28;21137;-83
2023/04/21 10:52:05;;;;;;;11.75;6.55;;;;;;;;;;4996885;28;20449;-85
2023/04/21 10:54:40;;;;;;;11.30;6.40;;;;;;;;;;4989826;28;20442;-83
2023/04/21 10:57:10;;;;;;;11.65;6.13;;;;;;;;;;4998410;28;20464;-83
2023/04/21 10:59:39;;;;;;;12.18;6.70;;;;;;;;;;4980685;28;20439;-85
2023/04/21 11:02:12;;;;;;;12.57;6.78;;;;;;;;;;4995765;28;20432;-82
2023/04/21 11:04:43;;;;;;;11.40;6.57;;;;;;;;;;4996014;28;20766;-86
2023/04/21 11:07:12;;;;;;;12.25;6.40;;;;;;;;;;4998260;28;20531;-87
2023/04/21 11:09:40;;;;;;;12.38;6.55;;;;;;;;;;4985640;28;20452;-83
2023/04/21 11:12:14;;;;;;;11.75;6.57;;;;;;;;;;4977889;28;20442;-81
2023/04/21 11:14:48;;;;;;;10.27;6.20;;;;;;;;;;4984055;28;20432;-81
2023/04/21 11:17:17;;;;;;;10.70;6.53;;;;;;;;;;4979235;28;20434;-85
2023/04/21 11:19:45;;;;;;;10.52;6.15;;;;;;;;;;5000049;28;20927;-83
2023/04/21 11:22:13;;;;;;;10.85;6.40;;;;;;;;;;4992727;28;20449;-83
2023/04/21 11:24:46;;;;;;;10.98;6.45;;;;;;;;;;4994126;28;20442;-84
2023/04/21 11:27:21;;;;;;;10.30;6.20;;;;;;;;;;4996744;28;20769;-81
2023/04/21 11:29:50;;;;;;;11.60;6.40;;;;;;;;;;4996532;28;20439;-85
2023/04/21 11:32:23;;;;;;;10.93;6.30;;;;;;;;;;4976053;28;20435;-83
2023/04/21 11:34:51;;;;;;;9.90;6.10;;;;;;;;;;4978199;28;20438;-86
2023/04/21 11:37:25;;;;;;;11.57;6.25;;;;;;;;;;4978559;28;20426;-83
2023/04/21 11:39:57;;;;;;;11.13;6.22;;;;;;;;;;4977239;28;20426;-84
2023/04/21 11:42:24;;;;;;;12.43;6.97;;;;;;;;;;4987380;28;20434;-81
2023/04/21 11:44:55;;;;;;;10.55;6.03;;;;;;;;;;4991252;28;20442;-82
2023/04/21 11:47:28;;;;;;;10.50;6.38;;;;;;;;;;4975344;28;20442;-81
2023/04/21 11:50:01;;;;;;;12.97;6.70;;;;;;;;;;4993892;28;20430;-81
2023/04/21 11:52:31;;;;;;;11.73;6.73;;;;;;;;;;4987289;28;20813;-82
2023/04/21 11:55:05;;;;;;;11.50;6.53;;;;;;;;;;4975471;28;20441;-85
2023/04/21 11:57:33;;;;;;;10.70;6.10;;;;;;;;;;4998834;28;20425;-83
2023/04/21 12:00:10;;;;;;;13.70;6.75;;;;;;;;;;4995387;28;21120;-83
2023/04/21 12:02:38;;;;;;;11.48;6.40;;;;;;;;;;4983599;28;20457;-83
2023/04/21 12:05:07;;;;;;;11.68;6.60;;;;;;;;;;4978312;28;21677;-84
2023/04/21 12:07:35;;;;;;;10.73;6.60;;;;;;;;;;4992706;28;20436;-83
2023/04/21 12:10:08;;;;;;;10.93;6.15;;;;;;;;;;4993978;28;20444;-85
2023/04/21 12:12:37;;;;;;;12.15;6.28;;;;;;;;;;4972009;28;20451;-84
2023/04/21 12:15:05;;;;;;;13.88;6.63;;;;;;;;;;4993426;28;20446;-84
2023/04/21 12:17:44;;;;;;;11.48;6.68;;;;;;;;;;4978438;28;21141;-84
2023/04/21 12:20:12;;;;;;;11.82;6.80;;;;;;;;;;4991032;28;20436;-82
2023/04/21 12:22:45;;;;;;;12.43;6.50;;;;;;;;;;4976283;28;20423;-84
2023/04/21 12:25:13;;;;;;;10.32;6.25;;;;;;;;;;4979351;28;20778;-83
2023/04/21 12:27:47;;;;;;;9.27;6.10;;;;;;;;;;4973362;28;20425;-83
2023/04/21 12:30:20;;;;;;;11.48;6.53;;;;;;;;;;4971801;28;20445;-85
2023/04/21 12:32:55;;;;;;;11.15;6.68;;;;;;;;;;4970741;28;20422;-85
2023/04/21 12:35:27;;;;;;;11.93;6.72;;;;;;;;;;4990040;28;20447;-82
2023/04/21 12:37:59;;;;;;;10.93;6.50;;;;;;;;;;4990845;28;20423;-82
2023/04/21 12:40:27;;;;;;;10.80;6.50;;;;;;;;;;4977617;28;20435;-85
2023/04/21 12:42:54;;;;;;;9.83;6.00;;;;;;;;;;4990538;28;20445;-83
2023/04/21 12:45:22;;;;;;;10.40;6.10;;;;;;;;;;4992125;28;20468;-82
2023/04/21 12:47:57;;;;;;;10.60;6.00;;;;;;;;;;4983185;28;21151;-83
2023/04/21 12:50:29;;;;;;;11.50;6.43;;;;;;;;;;4971677;28;20441;-84
2023/04/21 12:52:57;;;;;;;11.60;7.00;;;;;;;;;;4989262;28;20430;-83
2023/04/21 12:55:25;;;;;;;11.52;6.55;;;;;;;;;;4990969;28;20432;-84
2023/04/21 12:57:53;;;;;;;10.18;6.45;;;;;;;;;;4978073;28;21028;-82
2023/04/21 13:00:21;;;;;;;9.90;6.32;;;;;;;;;;4985906;28;20434;-85
2023/04/21 13:02:49;;;;;;;10.18;6.40;;;;;;;;;;4986015;28;20435;-84
2023/04/21 13:05:24;;;;;;;10.23;6.00;;;;;;;;;;4977661;28;21178;-85
2023/04/21 13:07:54;;;;;;;9.18;5.82;;;;;;;;;;4991445;28;20951;-82
2023/04/21 13:10:21;;;;;;;12.23;6.22;;;;;;;;;;4989781;28;20449;-83
2023/04/21 13:12:54;;;;;;;10.20;6.22;;;;;;;;;;4974734;28;20906;-82
2023/04/21 13:15:22;;;;;;;10.03;6.03;;;;;;;;;;4974693;28;20447;-84
2023/04/21 13:17:50;;;;;;;11.20;6.32;;;;;;;;;;4992169;28;20436;-81
2023/04/21 13:20:24;;;;;;;10.50;6.03;;;;;;;;;;4977855;28;20433;-82
2023/04/21 13:22:52;;;;;;;9.73;5.50;;;;;;;;;;4990586;28;21106;-82
2023/04/21 13:25:25;;;;;;;11.50;6.00;;;;;;;;;;4972885;28;20428;-82
2023/04/21 13:27:54;;;;;;;9.50;5.57;;;;;;;;;;4967505;28;20439;-81
2023/04/21 13:30:21;;;;;;;9.57;5.47;;;;;;;;;;4986188;28;20442;-82
2023/04/21 13:32:49;;;;;;;12.30;6.20;;;;;;;;;;4977883;28;20932;-84
2023/04/21 13:35:17;;;;;;;10.15;5.45;;;;;;;;;;4980284;28;20438;-86
2023/04/21 13:37:48;;;;;;;9.83;5.80;;;;;;;;;;4977155;28;21277;-81
2023/04/21 13:40:15;;;;;;;10.13;5.75;;;;;;;;;;4978306;28;20429;-84
2023/04/21 13:42:43;;;;;;;9.10;5.65;;;;;;;;;;4976802;28;21084;-80
2023/04/21 13:45:11;;;;;;;10.83;5.60;;;;;;;;;;4983022;28;20453;-82
2023/04/21 13:47:39;;;;;;;9.55;5.70;;;;;;;;;;4982047;28;21055;-83
2023/04/21 13:50:08;;;;;;;9.57;6.13;;;;;;;;;;4971643;28;20437;-82
2023/04/21 13:52:41;;;;;;;9.93;5.50;;;;;;;;;;4973672;28;20441;-81
2023/04/21 13:55:11;;;;;;;11.43;5.93;;;;;;;;;;4972979;28;20472;-83
2023/04/21 13:57:39;;;;;;;9.55;5.90;;;;;;;;;;4976512;28;20447;-82
2023/04/21 14:00:12;;;;;;;11.73;6.15;;;;;;;;;;4988264;28;20439;-82
2023/04/21 14:02:40;;;;;;;11.10;7.00;;;;;;;;;;4990254;28;21332;-84
2023/04/21 14:05:13;;;;;;;9.65;6.13;;;;;;;;;;4979762;28;20430;-81
2023/04/21 14:07:42;;;;;;;9.88;6.10;;;;;;;;;;4984908;28;20444;-82
2023/04/21 14:10:11;;;;;;;10.82;6.32;;;;;;;;;;4993862;28;21299;-82
2023/04/21 14:12:39;;;;;;;9.95;5.85;;;;;;;;;;4993866;28;20440;-82
2023/04/21 14:15:08;;;;;;;12.32;6.25;;;;;;;;;;4978811;28;20471;-82
2023/04/21 14:17:35;;;;;;;9.60;5.60;;;;;;;;;;4972059;28;20437;-83
2023/04/21 14:20:09;;;;;;;10.20;5.95;;;;;;;;;;4991521;28;20472;-82
2023/04/21 14:22:42;;;;;;;10.35;5.63;;;;;;;;;;4981486;28;20437;-82
2023/04/21 14:25:11;;;;;;;9.45;5.53;;;;;;;;;;4984868;28;21004;-82
2023/04/21 14:27:39;;;;;;;9.95;6.03;;;;;;;;;;4982698;28;20439;-81
2023/04/21 14:30:08;;;;;;;10.63;5.85;;;;;;;;;;4982217;28;20437;-82
2023/04/21 14:32:36;;;;;;;11.88;5.88;;;;;;;;;;4995885;28;21095;-82
2023/04/21 14:35:04;;;;;;;9.60;6.13;;;;;;;;;;4979578;28;20440;-79
2023/04/21 14:37:37;;;;;;;9.32;5.88;;;;;;;;;;4988517;28;20447;-84
2023/04/21 14:40:06;;;;;;;10.85;6.30;;;;;;;;;;4983037;28;20442;-85
2023/04/21 14:42:35;;;;;;;11.63;6.15;;;;;;;;;;4994449;28;20925;-85
2023/04/21 14:45:03;;;;;;;10.70;6.15;;;;;;;;;;4977908;28;20426;-83
2023/04/21 14:47:31;;;;;;;10.35;6.13;;;;;;;;;;4988665;28;20442;-86
2023/04/21 14:49:59;;;;;;;10.10;5.95;;;;;;;;;;4994040;28;20446;-80